sensor_id;sensor_type;location;lat;lon;timestamp;pressure;altitude;pressure_sealevel;temperature;humidity
67099;BME280;54288;53.046;5.668;2023-06-22T00:00:53;102115.59;;;17.30;100.00
67099;BME280;54288;53.046;5.668;2023-06-22T00:03:21;102106.00;;;17.26;100.00
67099;BME280;54288;53.046;5.668;2023-06-22T00:05:48;102109.66;;;17.22;100.00
67099;BME280;54288;53.046;5.668;2023-06-22T00:08:15;102115.91;;;17.19;100.00
67099;BME280;54288;53.046;5.668;2023-06-22T00:10:41;102114.94;;;17.22;100.00
67099;BME280;54288;53.046;5.668;2023-06-22T00:13:08;102110.56;;;17.21;100.00
67099;BME280;54288;53.046;5.668;2023-06-22T00:15:36;102111.41;;;17.21;100.00
67099;BME280;54288;53.046;5.668;2023-06-22T00:18:02;102122.94;;;17.20;100.00
67099;BME280;54288;53.046;5.668;2023-06-22T00:20:28;102123.06;;;17.16;100.00
67099;BME280;54288;53.046;5.668;2023-06-22T00:22:56;102133.69;;;17.14;100.00
67099;BME280;54288;53.046;5.668;2023-06-22T00:25:23;102129.16;;;17.18;100.00
67099;BME280;54288;53.046;5.668;2023-06-22T00:27:50;102129.28;;;17.15;100.00
67099;BME280;54288;53.046;5.668;2023-06-22T00:30:16;102129.34;;;17.12;100.00
67099;BME280;54288;53.046;5.668;2023-06-22T00:32:43;102139.78;;;17.16;100.00
67099;BME280;54288;53.046;5.668;2023-06-22T00:35:10;102142.59;;;17.10;100.00
67099;BME280;54288;53.046;5.668;2023-06-22T00:37:36;102141.75;;;17.10;100.00
67099;BME280;54288;53.046;5.668;2023-06-22T00:40:04;102148.75;;;17.12;100.00
67099;BME280;54288;53.046;5.668;2023-06-22T00:42:30;102141.81;;;17.07;100.00
67099;BME280;54288;53.046;5.668;2023-06-22T00:44:56;102154.38;;;17.00;100.00
67099;BME280;54288;53.046;5.668;2023-06-22T00:47:23;102155.47;;;16.92;100.00
67099;BME280;54288;53.046;5.668;2023-06-22T00:49:49;102154.56;;;16.93;100.00
67099;BME280;54288;53.046;5.668;2023-06-22T00:52:22;102151.06;;;16.91;100.00
67099;BME280;54288;53.046;5.668;2023-06-22T00:54:52;102154.63;;;16.90;100.00
67099;BME280;54288;53.046;5.668;2023-06-22T00:57:20;102150.31;;;16.86;100.00
67099;BME280;54288;53.046;5.668;2023-06-22T00:59:48;102155.69;;;16.83;100.00
67099;BME280;54288;53.046;5.668;2023-06-22T01:02:14;102151.22;;;16.85;100.00
67099;BME280;54288;53.046;5.668;2023-06-22T01:04:40;102147.81;;;16.80;100.00
67099;BME280;54288;53.046;5.668;2023-06-22T01:09:49;102134.91;;;16.68;100.00
67099;BME280;54288;53.046;5.668;2023-06-22T01:12:18;102134.88;;;16.69;100.00
67099;BME280;54288;53.046;5.668;2023-06-22T01:14:58;102133.13;;;16.68;100.00
67099;BME280;54288;53.046;5.668;2023-06-22T01:17:29;102132.31;;;16.66;100.00
67099;BME280;54288;53.046;5.668;2023-06-22T01:19:57;102131.44;;;16.66;100.00
67099;BME280;54288;53.046;5.668;2023-06-22T01:22:27;102132.34;;;16.65;100.00
67099;BME280;54288;53.046;5.668;2023-06-22T01:28:04;102130.63;;;16.64;100.00
67099;BME280;54288;53.046;5.668;2023-06-22T01:30:32;102129.72;;;16.63;100.00
67099;BME280;54288;53.046;5.668;2023-06-22T01:33:02;102121.00;;;16.60;100.00
67099;BME280;54288;53.046;5.668;2023-06-22T01:35:30;102121.94;;;16.59;100.00
67099;BME280;54288;53.046;5.668;2023-06-22T01:38:00;102121.84;;;16.62;100.00
67099;BME280;54288;53.046;5.668;2023-06-22T01:40:26;102125.25;;;16.65;100.00
67099;BME280;54288;53.046;5.668;2023-06-22T01:42:53;102120.81;;;16.67;100.00
67099;BME280;54288;53.046;5.668;2023-06-22T01:45:19;102113.06;;;16.60;100.00
67099;BME280;54288;53.046;5.668;2023-06-22T01:47:46;102116.94;;;16.47;100.00
67099;BME280;54288;53.046;5.668;2023-06-22T01:50:12;102110.81;;;16.43;100.00
67099;BME280;54288;53.046;5.668;2023-06-22T01:52:38;102118.03;;;16.37;100.00
67099;BME280;54288;53.046;5.668;2023-06-22T01:55:04;102114.47;;;16.39;100.00
67099;BME280;54288;53.046;5.668;2023-06-22T01:57:31;102120.56;;;16.43;100.00
67099;BME280;54288;53.046;5.668;2023-06-22T02:00:07;102123.09;;;16.46;100.00
67099;BME280;54288;53.046;5.668;2023-06-22T02:02:57;102116.97;;;16.45;100.00
67099;BME280;54288;53.046;5.668;2023-06-22T02:05:31;102118.84;;;16.40;100.00
67099;BME280;54288;53.046;5.668;2023-06-22T02:08:15;102124.16;;;16.39;100.00
67099;BME280;54288;53.046;5.668;2023-06-22T02:10:46;102118.94;;;16.36;100.00
67099;BME280;54288;53.046;5.668;2023-06-22T02:13:14;102119.00;;;16.33;100.00
67099;BME280;54288;53.046;5.668;2023-06-22T02:15:42;102119.13;;;16.28;100.00
67099;BME280;54288;53.046;5.668;2023-06-22T02:18:12;102120.03;;;16.27;100.00
67099;BME280;54288;53.046;5.668;2023-06-22T02:20:39;102113.84;;;16.27;100.00
67099;BME280;54288;53.046;5.668;2023-06-22T02:23:06;102110.31;;;16.26;100.00
67099;BME280;54288;53.046;5.668;2023-06-22T02:25:35;102113.94;;;16.24;100.00
67099;BME280;54288;53.046;5.668;2023-06-22T02:28:01;102105.13;;;16.23;100.00
67099;BME280;54288;53.046;5.668;2023-06-22T02:30:27;102113.88;;;16.25;100.00
67099;BME280;54288;53.046;5.668;2023-06-22T02:32:52;102110.38;;;16.25;100.00
67099;BME280;54288;53.046;5.668;2023-06-22T02:35:27;102104.09;;;16.29;100.00
67099;BME280;54288;53.046;5.668;2023-06-22T02:38:00;102103.22;;;16.30;100.00
67099;BME280;54288;53.046;5.668;2023-06-22T02:40:27;102099.66;;;16.31;100.00
67099;BME280;54288;53.046;5.668;2023-06-22T02:42:52;102102.34;;;16.29;100.00
67099;BME280;54288;53.046;5.668;2023-06-22T02:45:18;102106.81;;;16.27;100.00
67099;BME280;54288;53.046;5.668;2023-06-22T02:47:45;102103.50;;;16.18;100.00
67099;BME280;54288;53.046;5.668;2023-06-22T02:50:11;102106.94;;;16.21;100.00
67099;BME280;54288;53.046;5.668;2023-06-22T02:52:37;102112.19;;;16.23;100.00
67099;BME280;54288;53.046;5.668;2023-06-22T02:55:04;102110.44;;;16.22;100.00
67099;BME280;54288;53.046;5.668;2023-06-22T02:57:29;102109.53;;;16.23;100.00
67099;BME280;54288;53.046;5.668;2023-06-22T02:59:55;102114.03;;;16.19;100.00
67099;BME280;54288;53.046;5.668;2023-06-22T03:02:21;102124.66;;;16.18;100.00
67099;BME280;54288;53.046;5.668;2023-06-22T03:04:47;102111.47;;;16.16;100.00
67099;BME280;54288;53.046;5.668;2023-06-22T03:07:15;102115.84;;;16.17;100.00
67099;BME280;54288;53.046;5.668;2023-06-22T03:09:43;102111.50;;;16.15;100.00
67099;BME280;54288;53.046;5.668;2023-06-22T03:12:09;102120.44;;;16.09;100.00
67099;BME280;54288;53.046;5.668;2023-06-22T03:14:52;102112.84;;;15.96;100.00
67099;BME280;54288;53.046;5.668;2023-06-22T03:17:18;102115.97;;;15.72;100.00
67099;BME280;54288;53.046;5.668;2023-06-22T03:19:44;102119.09;;;15.51;100.00
67099;BME280;54288;53.046;5.668;2023-06-22T03:22:09;102113.75;;;15.52;100.00
67099;BME280;54288;53.046;5.668;2023-06-22T03:24:35;102116.31;;;15.57;100.00
67099;BME280;54288;53.046;5.668;2023-06-22T03:27:02;102112.81;;;15.55;100.00
67099;BME280;54288;53.046;5.668;2023-06-22T03:29:30;102114.66;;;15.51;100.00
67099;BME280;54288;53.046;5.668;2023-06-22T03:31:56;102114.75;;;15.47;100.00
67099;BME280;54288;53.046;5.668;2023-06-22T03:34:22;102110.06;;;15.61;100.00
67099;BME280;54288;53.046;5.668;2023-06-22T03:36:52;102109.22;;;15.60;100.00
67099;BME280;54288;53.046;5.668;2023-06-22T03:39:17;102108.31;;;15.60;100.00
67099;BME280;54288;53.046;5.668;2023-06-22T03:41:43;102105.75;;;15.57;100.00
67099;BME280;54288;53.046;5.668;2023-06-22T03:44:09;102104.09;;;15.51;100.00
67099;BME280;54288;53.046;5.668;2023-06-22T03:46:38;102112.13;;;15.47;100.00
67099;BME280;54288;53.046;5.668;2023-06-22T03:49:04;102113.31;;;15.32;100.00
67099;BME280;54288;53.046;5.668;2023-06-22T03:51:31;102104.47;;;15.35;100.00
67099;BME280;54288;53.046;5.668;2023-06-22T03:53:57;102113.13;;;15.41;100.00
67099;BME280;54288;53.046;5.668;2023-06-22T03:56:22;102111.34;;;15.42;100.00
67099;BME280;54288;53.046;5.668;2023-06-22T03:58:48;102110.31;;;15.49;100.00
67099;BME280;54288;53.046;5.668;2023-06-22T04:01:14;102101.44;;;15.53;100.00
67099;BME280;54288;53.046;5.668;2023-06-22T04:03:41;102110.25;;;15.53;100.00
67099;BME280;54288;53.046;5.668;2023-06-22T04:06:06;102123.16;;;15.67;100.00
67099;BME280;54288;53.046;5.668;2023-06-22T04:08:32;102120.44;;;15.70;100.00
67099;BME280;54288;53.046;5.668;2023-06-22T04:10:58;102123.91;;;15.72;100.00
67099;BME280;54288;53.046;5.668;2023-06-22T04:13:23;102128.31;;;15.73;100.00
67099;BME280;54288;53.046;5.668;2023-06-22T04:15:49;102121.22;;;15.75;100.00
67099;BME280;54288;53.046;5.668;2023-06-22T04:18:14;102111.41;;;15.81;100.00
67099;BME280;54288;53.046;5.668;2023-06-22T04:20:40;102109.41;;;15.91;100.00
67099;BME280;54288;53.046;5.668;2023-06-22T04:23:06;102106.63;;;15.97;100.00
67099;BME280;54288;53.046;5.668;2023-06-22T04:25:32;102103.75;;;16.06;100.00
67099;BME280;54288;53.046;5.668;2023-06-22T04:27:57;102088.63;;;16.14;100.00
67099;BME280;54288;53.046;5.668;2023-06-22T04:30:23;102098.22;;;16.18;100.00
67099;BME280;54288;53.046;5.668;2023-06-22T04:32:49;102097.16;;;16.25;100.00
67099;BME280;54288;53.046;5.668;2023-06-22T04:35:22;102104.34;;;16.20;100.00
67099;BME280;54288;53.046;5.668;2023-06-22T04:37:48;102091.91;;;16.23;100.00
67099;BME280;54288;53.046;5.668;2023-06-22T04:40:15;102095.31;;;16.28;100.00
67099;BME280;54288;53.046;5.668;2023-06-22T04:42:41;102092.66;;;16.30;100.00
67099;BME280;54288;53.046;5.668;2023-06-22T04:45:19;102085.25;;;16.45;100.00
67099;BME280;54288;53.046;5.668;2023-06-22T04:47:46;102084.31;;;16.46;100.00
67099;BME280;54288;53.046;5.668;2023-06-22T04:50:12;102088.47;;;16.58;100.00
67099;BME280;54288;53.046;5.668;2023-06-22T04:52:38;102091.00;;;16.61;100.00
67099;BME280;54288;53.046;5.668;2023-06-22T04:55:04;102099.88;;;16.58;100.00
67099;BME280;54288;53.046;5.668;2023-06-22T04:57:30;102093.63;;;16.62;100.00
67099;BME280;54288;53.046;5.668;2023-06-22T05:00:02;102098.63;;;16.73;100.00
67099;BME280;54288;53.046;5.668;2023-06-22T05:02:39;102099.63;;;17.01;100.00
67099;BME280;54288;53.046;5.668;2023-06-22T05:05:05;102095.41;;;17.26;100.00
67099;BME280;54288;53.046;5.668;2023-06-22T05:07:36;102095.16;;;17.35;100.00
67099;BME280;54288;53.046;5.668;2023-06-22T05:10:03;102094.28;;;17.34;100.00
67099;BME280;54288;53.046;5.668;2023-06-22T05:12:29;102096.66;;;17.45;100.00
67099;BME280;54288;53.046;5.668;2023-06-22T05:14:56;102092.66;;;17.61;100.00
67099;BME280;54288;53.046;5.668;2023-06-22T05:17:22;102089.53;;;17.76;100.00
67099;BME280;54288;53.046;5.668;2023-06-22T05:19:48;102089.78;;;18.51;100.00
67099;BME280;54288;53.046;5.668;2023-06-22T05:22:16;102079.56;;;19.63;100.00
67099;BME280;54288;53.046;5.668;2023-06-22T05:24:43;102085.75;;;20.72;100.00
67099;BME280;54288;53.046;5.668;2023-06-22T05:27:10;102093.78;;;21.51;100.00
67099;BME280;54288;53.046;5.668;2023-06-22T05:29:39;102083.44;;;22.19;100.00
67099;BME280;54288;53.046;5.668;2023-06-22T05:32:05;102086.25;;;22.16;97.58
67099;BME280;54288;53.046;5.668;2023-06-22T05:34:32;102078.28;;;21.97;100.00
67099;BME280;54288;53.046;5.668;2023-06-22T05:36:58;102079.72;;;22.40;98.91
67099;BME280;54288;53.046;5.668;2023-06-22T05:39:26;102078.38;;;22.84;93.42
67099;BME280;54288;53.046;5.668;2023-06-22T05:41:52;102081.81;;;22.69;94.84
67099;BME280;54288;53.046;5.668;2023-06-22T05:44:18;102076.72;;;22.81;95.12
67099;BME280;54288;53.046;5.668;2023-06-22T05:46:45;102073.44;;;23.43;88.80
67099;BME280;54288;53.046;5.668;2023-06-22T05:49:13;102075.78;;;23.80;87.85
67099;BME280;54288;53.046;5.668;2023-06-22T05:51:39;102079.34;;;23.80;84.38
67099;BME280;54288;53.046;5.668;2023-06-22T05:54:05;102083.31;;;23.73;87.05
67099;BME280;54288;53.046;5.668;2023-06-22T05:56:31;102077.28;;;23.70;87.61
67099;BME280;54288;53.046;5.668;2023-06-22T05:58:57;102068.97;;;23.43;86.64
67099;BME280;54288;53.046;5.668;2023-06-22T06:01:22;102083.53;;;23.21;87.92
67099;BME280;54288;53.046;5.668;2023-06-22T06:03:48;102075.78;;;22.11;95.62
67099;BME280;54288;53.046;5.668;2023-06-22T06:06:15;102077.47;;;23.34;91.89
67099;BME280;54288;53.046;5.668;2023-06-22T06:08:41;102080.53;;;23.10;90.12
67099;BME280;54288;53.046;5.668;2023-06-22T06:11:07;102084.44;;;22.16;94.14
67099;BME280;54288;53.046;5.668;2023-06-22T06:13:33;102095.56;;;21.70;99.13
67099;BME280;54288;53.046;5.668;2023-06-22T06:15:58;102095.28;;;21.76;100.00
67099;BME280;54288;53.046;5.668;2023-06-22T06:18:25;102099.09;;;21.51;100.00
67099;BME280;54288;53.046;5.668;2023-06-22T06:20:50;102107.44;;;21.25;100.00
67099;BME280;54288;53.046;5.668;2023-06-22T06:23:16;102105.44;;;21.10;100.00
67099;BME280;54288;53.046;5.668;2023-06-22T06:25:42;102102.50;;;21.16;100.00
67099;BME280;54288;53.046;5.668;2023-06-22T06:28:08;102101.72;;;21.52;100.00
67099;BME280;54288;53.046;5.668;2023-06-22T06:30:33;102097.22;;;21.34;100.00
67099;BME280;54288;53.046;5.668;2023-06-22T06:33:00;102106.44;;;21.46;100.00
67099;BME280;54288;53.046;5.668;2023-06-22T06:35:26;102100.84;;;21.52;100.00
67099;BME280;54288;53.046;5.668;2023-06-22T06:37:51;102097.66;;;21.82;100.00
67099;BME280;54288;53.046;5.668;2023-06-22T06:40:18;102096.81;;;21.82;100.00
67099;BME280;54288;53.046;5.668;2023-06-22T06:42:46;102086.22;;;21.99;100.00
67099;BME280;54288;53.046;5.668;2023-06-22T06:45:19;102091.66;;;21.77;99.74
67099;BME280;54288;53.046;5.668;2023-06-22T06:47:46;102098.53;;;21.63;100.00
67099;BME280;54288;53.046;5.668;2023-06-22T06:50:12;102092.66;;;21.75;100.00
67099;BME280;54288;53.046;5.668;2023-06-22T06:52:38;102085.91;;;22.40;99.58
67099;BME280;54288;53.046;5.668;2023-06-22T06:55:05;102084.56;;;23.01;95.18
67099;BME280;54288;53.046;5.668;2023-06-22T06:57:34;102085.44;;;23.19;93.01
67099;BME280;54288;53.046;5.668;2023-06-22T07:00:00;102090.06;;;23.80;88.35
67099;BME280;54288;53.046;5.668;2023-06-22T07:02:26;102094.28;;;23.36;88.15
67099;BME280;54288;53.046;5.668;2023-06-22T07:04:55;102082.50;;;22.72;93.48
67099;BME280;54288;53.046;5.668;2023-06-22T07:07:23;102091.72;;;23.01;93.96
67099;BME280;54288;53.046;5.668;2023-06-22T07:09:49;102089.63;;;23.40;91.68
67099;BME280;54288;53.046;5.668;2023-06-22T07:12:15;102094.59;;;23.63;89.44
67099;BME280;54288;53.046;5.668;2023-06-22T07:14:41;102095.63;;;23.93;84.67
67099;BME280;54288;53.046;5.668;2023-06-22T07:17:06;102090.22;;;23.29;87.90
67099;BME280;54288;53.046;5.668;2023-06-22T07:19:33;102092.59;;;23.51;87.96
67099;BME280;54288;53.046;5.668;2023-06-22T07:21:59;102076.63;;;23.97;87.27
67099;BME280;54288;53.046;5.668;2023-06-22T07:24:24;102083.34;;;24.35;83.77
67099;BME280;54288;53.046;5.668;2023-06-22T07:26:51;102072.56;;;24.06;84.68
67099;BME280;54288;53.046;5.668;2023-06-22T07:29:17;102070.16;;;23.53;87.59
67099;BME280;54288;53.046;5.668;2023-06-22T07:31:44;102069.06;;;23.73;89.00
67099;BME280;54288;53.046;5.668;2023-06-22T07:34:10;102071.59;;;23.76;86.15
67099;BME280;54288;53.046;5.668;2023-06-22T07:36:36;102067.28;;;23.73;85.34
67099;BME280;54288;53.046;5.668;2023-06-22T07:39:03;102056.84;;;24.00;83.05
67099;BME280;54288;53.046;5.668;2023-06-22T07:41:29;102066.53;;;24.02;84.98
67099;BME280;54288;53.046;5.668;2023-06-22T07:43:55;102065.03;;;24.28;83.71
67099;BME280;54288;53.046;5.668;2023-06-22T07:46:21;102061.53;;;24.57;80.37
67099;BME280;54288;53.046;5.668;2023-06-22T07:48:47;102061.16;;;24.18;81.44
67099;BME280;54288;53.046;5.668;2023-06-22T07:51:13;102068.69;;;24.27;82.46
67099;BME280;54288;53.046;5.668;2023-06-22T07:53:43;102060.13;;;24.20;83.33
67099;BME280;54288;53.046;5.668;2023-06-22T07:56:10;102048.66;;;24.18;81.92
67099;BME280;54288;53.046;5.668;2023-06-22T07:58:36;102061.34;;;24.75;80.81
67099;BME280;54288;53.046;5.668;2023-06-22T08:01:03;102050.09;;;24.69;81.08
67099;BME280;54288;53.046;5.668;2023-06-22T08:03:29;102057.75;;;24.61;82.47
67099;BME280;54288;53.046;5.668;2023-06-22T08:05:55;102055.00;;;24.76;82.58
67099;BME280;54288;53.046;5.668;2023-06-22T08:08:21;102057.31;;;24.82;80.17
67099;BME280;54288;53.046;5.668;2023-06-22T08:10:47;102047.94;;;24.89;81.00
67099;BME280;54288;53.046;5.668;2023-06-22T08:13:12;102051.53;;;25.18;77.18
67099;BME280;54288;53.046;5.668;2023-06-22T08:15:38;102054.41;;;25.01;78.81
67099;BME280;54288;53.046;5.668;2023-06-22T08:18:04;102055.81;;;24.92;78.19
67099;BME280;54288;53.046;5.668;2023-06-22T08:20:30;102053.22;;;25.05;79.15
67099;BME280;54288;53.046;5.668;2023-06-22T08:22:57;102047.88;;;25.05;77.99
67099;BME280;54288;53.046;5.668;2023-06-22T08:25:25;102051.69;;;24.87;77.04
67099;BME280;54288;53.046;5.668;2023-06-22T08:27:51;102052.03;;;24.81;77.18
67099;BME280;54288;53.046;5.668;2023-06-22T08:30:17;102059.31;;;24.79;76.37
67099;BME280;54288;53.046;5.668;2023-06-22T08:32:44;102050.97;;;24.69;77.79
67099;BME280;54288;53.046;5.668;2023-06-22T08:35:09;102052.03;;;24.67;77.78
67099;BME280;54288;53.046;5.668;2023-06-22T08:37:35;102057.41;;;24.81;76.65
67099;BME280;54288;53.046;5.668;2023-06-22T08:40:03;102051.47;;;24.76;74.42
67099;BME280;54288;53.046;5.668;2023-06-22T08:42:30;102047.34;;;25.42;74.33
67099;BME280;54288;53.046;5.668;2023-06-22T08:44:57;102044.06;;;25.93;71.05
67099;BME280;54288;53.046;5.668;2023-06-22T08:47:24;102037.28;;;26.14;69.33
67099;BME280;54288;53.046;5.668;2023-06-22T08:49:50;102037.63;;;26.22;68.23
67099;BME280;54288;53.046;5.668;2023-06-22T08:52:17;102035.50;;;26.27;63.98
67099;BME280;54288;53.046;5.668;2023-06-22T08:54:43;102037.63;;;26.22;66.77
67099;BME280;54288;53.046;5.668;2023-06-22T08:57:09;102025.34;;;26.71;66.16
67099;BME280;54288;53.046;5.668;2023-06-22T08:59:35;102025.41;;;26.57;61.85
67099;BME280;54288;53.046;5.668;2023-06-22T09:02:01;102026.97;;;25.94;62.58
67099;BME280;54288;53.046;5.668;2023-06-22T09:04:26;102020.88;;;25.92;63.76
67099;BME280;54288;53.046;5.668;2023-06-22T09:06:52;102017.81;;;26.37;60.21
67099;BME280;54288;53.046;5.668;2023-06-22T09:09:18;102016.50;;;26.69;60.34
67099;BME280;54288;53.046;5.668;2023-06-22T09:11:44;102004.66;;;26.32;58.22
67099;BME280;54288;53.046;5.668;2023-06-22T09:14:11;102007.72;;;26.40;57.74
67099;BME280;54288;53.046;5.668;2023-06-22T09:16:37;102009.19;;;26.58;58.86
67099;BME280;54288;53.046;5.668;2023-06-22T09:19:02;101999.41;;;26.70;58.54
67099;BME280;54288;53.046;5.668;2023-06-22T09:21:28;102007.81;;;26.78;57.73
67099;BME280;54288;53.046;5.668;2023-06-22T09:23:54;101996.84;;;27.31;54.39
67099;BME280;54288;53.046;5.668;2023-06-22T09:26:21;101992.88;;;27.24;53.27
67099;BME280;54288;53.046;5.668;2023-06-22T09:28:47;102000.72;;;27.27;53.06
67099;BME280;54288;53.046;5.668;2023-06-22T09:31:12;102003.38;;;27.52;51.11
67099;BME280;54288;53.046;5.668;2023-06-22T09:33:40;101999.81;;;27.51;53.45
67099;BME280;54288;53.046;5.668;2023-06-22T09:36:06;101995.91;;;27.68;51.21
67099;BME280;54288;53.046;5.668;2023-06-22T09:38:38;102000.72;;;27.88;50.26
67099;BME280;54288;53.046;5.668;2023-06-22T09:41:04;102003.75;;;27.83;51.06
67099;BME280;54288;53.046;5.668;2023-06-22T09:43:32;101991.03;;;28.09;48.42
67099;BME280;54288;53.046;5.668;2023-06-22T09:46:00;101994.06;;;28.28;50.29
67099;BME280;54288;53.046;5.668;2023-06-22T09:48:30;101994.53;;;28.22;48.99
67099;BME280;54288;53.046;5.668;2023-06-22T09:50:56;101995.50;;;27.97;49.72
67099;BME280;54288;53.046;5.668;2023-06-22T09:53:22;101992.25;;;27.69;51.31
67099;BME280;54288;53.046;5.668;2023-06-22T09:55:48;101988.97;;;27.89;51.68
67099;BME280;54288;53.046;5.668;2023-06-22T09:58:13;101990.72;;;27.90;49.48
67099;BME280;54288;53.046;5.668;2023-06-22T10:00:39;101988.22;;;27.74;49.54
67099;BME280;54288;53.046;5.668;2023-06-22T10:03:07;101983.63;;;28.00;48.71
67099;BME280;54288;53.046;5.668;2023-06-22T10:05:33;101988.13;;;27.76;49.68
67099;BME280;54288;53.046;5.668;2023-06-22T10:07:59;101991.22;;;27.46;50.42
67099;BME280;54288;53.046;5.668;2023-06-22T10:10:24;101978.25;;;27.64;49.85
67099;BME280;54288;53.046;5.668;2023-06-22T10:12:57;101976.84;;;28.07;48.17
67099;BME280;54288;53.046;5.668;2023-06-22T10:15:23;101977.78;;;28.53;48.31
67099;BME280;54288;53.046;5.668;2023-06-22T10:17:49;101973.63;;;28.36;47.99
67099;BME280;54288;53.046;5.668;2023-06-22T10:20:15;101969.75;;;28.40;47.60
67099;BME280;54288;53.046;5.668;2023-06-22T10:22:44;101970.84;;;28.72;48.41
67099;BME280;54288;53.046;5.668;2023-06-22T10:25:12;101968.97;;;28.27;46.00
67099;BME280;54288;53.046;5.668;2023-06-22T10:27:38;101963.44;;;28.63;46.78
67099;BME280;54288;53.046;5.668;2023-06-22T10:30:08;101969.19;;;28.48;46.83
67099;BME280;54288;53.046;5.668;2023-06-22T10:32:34;101968.25;;;28.71;45.58
67099;BME280;54288;53.046;5.668;2023-06-22T10:35:00;101967.78;;;28.08;46.23
67099;BME280;54288;53.046;5.668;2023-06-22T10:37:26;101971.19;;;28.10;45.60
67099;BME280;54288;53.046;5.668;2023-06-22T10:39:51;101959.75;;;27.95;46.70
67099;BME280;54288;53.046;5.668;2023-06-22T10:42:17;101957.69;;;27.99;46.34
67099;BME280;54288;53.046;5.668;2023-06-22T10:44:43;101954.56;;;28.16;45.04
67099;BME280;54288;53.046;5.668;2023-06-22T10:47:10;101958.03;;;28.29;47.09
67099;BME280;54288;53.046;5.668;2023-06-22T10:49:38;101954.91;;;28.91;44.32
67099;BME280;54288;53.046;5.668;2023-06-22T10:52:06;101944.28;;;29.34;44.27
67099;BME280;54288;53.046;5.668;2023-06-22T10:54:32;101942.56;;;29.11;40.64
67099;BME280;54288;53.046;5.668;2023-06-22T10:56:59;101942.00;;;28.62;43.64
67099;BME280;54288;53.046;5.668;2023-06-22T10:59:25;101948.91;;;28.88;44.52
67099;BME280;54288;53.046;5.668;2023-06-22T11:01:52;101942.56;;;29.00;42.90
67099;BME280;54288;53.046;5.668;2023-06-22T11:04:18;101946.78;;;28.58;43.25
67099;BME280;54288;53.046;5.668;2023-06-22T11:06:44;101935.16;;;28.00;45.18
67099;BME280;54288;53.046;5.668;2023-06-22T11:09:09;101941.72;;;27.85;46.86
67099;BME280;54288;53.046;5.668;2023-06-22T11:11:35;101932.19;;;27.92;47.30
67099;BME280;54288;53.046;5.668;2023-06-22T11:14:01;101938.16;;;28.08;46.80
67099;BME280;54288;53.046;5.668;2023-06-22T11:16:27;101940.34;;;28.37;46.13
67099;BME280;54288;53.046;5.668;2023-06-22T11:18:53;101939.28;;;28.51;46.27
67099;BME280;54288;53.046;5.668;2023-06-22T11:21:18;101944.81;;;28.71;44.28
67099;BME280;54288;53.046;5.668;2023-06-22T11:23:45;101942.28;;;28.81;43.57
67099;BME280;54288;53.046;5.668;2023-06-22T11:26:10;101946.31;;;28.75;44.16
67099;BME280;54288;53.046;5.668;2023-06-22T11:28:36;101944.41;;;28.99;45.26
67099;BME280;54288;53.046;5.668;2023-06-22T11:31:02;101937.78;;;29.25;42.87
67099;BME280;54288;53.046;5.668;2023-06-22T11:33:28;101942.50;;;28.78;42.85
67099;BME280;54288;53.046;5.668;2023-06-22T11:35:54;101940.75;;;28.44;43.60
67099;BME280;54288;53.046;5.668;2023-06-22T11:38:21;101939.69;;;28.34;44.92
67099;BME280;54288;53.046;5.668;2023-06-22T11:40:47;101935.66;;;28.85;43.99
67099;BME280;54288;53.046;5.668;2023-06-22T11:43:13;101938.28;;;28.52;43.32
67099;BME280;54288;53.046;5.668;2023-06-22T11:45:40;101924.59;;;28.66;43.80
67099;BME280;54288;53.046;5.668;2023-06-22T11:48:06;101925.28;;;29.02;43.01
67099;BME280;54288;53.046;5.668;2023-06-22T11:50:32;101921.31;;;28.84;41.90
67099;BME280;54288;53.046;5.668;2023-06-22T11:53:04;101924.28;;;28.36;41.96
67099;BME280;54288;53.046;5.668;2023-06-22T11:55:29;101917.47;;;28.19;41.92
67099;BME280;54288;53.046;5.668;2023-06-22T11:57:56;101931.66;;;28.45;42.63
67099;BME280;54288;53.046;5.668;2023-06-22T12:00:25;101918.59;;;28.51;41.75
67099;BME280;54288;53.046;5.668;2023-06-22T12:02:51;101916.09;;;28.48;42.53
67099;BME280;54288;53.046;5.668;2023-06-22T12:05:20;101910.59;;;28.39;43.04
67099;BME280;54288;53.046;5.668;2023-06-22T12:07:53;101902.94;;;27.87;42.80
67099;BME280;54288;53.046;5.668;2023-06-22T12:10:18;101907.94;;;27.92;42.23
67099;BME280;54288;53.046;5.668;2023-06-22T12:12:44;101911.97;;;28.21;41.74
67099;BME280;54288;53.046;5.668;2023-06-22T12:15:10;101897.91;;;27.70;41.77
67099;BME280;54288;53.046;5.668;2023-06-22T12:17:36;101900.94;;;27.66;43.48
67099;BME280;54288;53.046;5.668;2023-06-22T12:20:02;101902.41;;;27.82;44.06
67099;BME280;54288;53.046;5.668;2023-06-22T12:22:34;101895.47;;;27.55;43.93
67099;BME280;54288;53.046;5.668;2023-06-22T12:25:01;101887.16;;;27.70;43.93
67099;BME280;54288;53.046;5.668;2023-06-22T12:27:26;101886.72;;;27.64;43.57
67099;BME280;54288;53.046;5.668;2023-06-22T12:29:52;101896.13;;;27.22;44.95
67099;BME280;54288;53.046;5.668;2023-06-22T12:32:18;101892.44;;;27.36;44.97
67099;BME280;54288;53.046;5.668;2023-06-22T12:34:44;101887.88;;;27.49;44.61
67099;BME280;54288;53.046;5.668;2023-06-22T12:37:10;101895.13;;;27.36;43.52
67099;BME280;54288;53.046;5.668;2023-06-22T12:39:36;101887.44;;;27.19;44.39
67099;BME280;54288;53.046;5.668;2023-06-22T12:42:02;101886.09;;;27.60;45.69
67099;BME280;54288;53.046;5.668;2023-06-22T12:44:28;101875.69;;;27.56;48.47
67099;BME280;54288;53.046;5.668;2023-06-22T12:46:53;101888.63;;;27.51;50.52
67099;BME280;54288;53.046;5.668;2023-06-22T12:49:19;101882.47;;;27.25;51.90